Time;durP1;ratioP1;P1;durP2;ratioP2;P2;SDS_P1;SDS_P2;PMS_P1;PMS_P2;Temp;Humidity;BMP_temperature;BMP_pressure;BME280_temperature;BME280_humidity;BME280_pressure;Samples;Min_cycle;Max_cycle;Signal;HPM_P1;HPM_P2
2022/08/17 00:00:36;;;;;;;0.40;0.40;;;;;;;;;;7379947;19;20622;-73
2022/08/17 00:03:24;;;;;;;0.40;0.40;;;;;;;;;;7376899;19;20165;-73
2022/08/17 00:06:03;;;;;;;0.30;0.30;;;;;;;;;;7374134;19;20151;-72
2022/08/17 00:08:34;;;;;;;0.30;0.30;;;;;;;;;;7383001;19;20121;-73
2022/08/17 00:11:00;;;;;;;0.40;0.40;;;;;;;;;;7366082;19;20244;-72
2022/08/17 00:13:36;;;;;;;0.30;0.30;;;;;;;;;;7367385;19;20178;-72
2022/08/17 00:16:33;;;;;;;0.30;0.30;;;;;;;;;;7375256;19;20129;-72
2022/08/17 00:19:04;;;;;;;0.40;0.40;;;;;;;;;;7372999;19;20164;-73
2022/08/17 00:21:31;;;;;;;0.38;0.38;;;;;;;;;;7377229;19;20148;-73
2022/08/17 00:23:56;;;;;;;0.50;0.50;;;;;;;;;;7373875;19;20128;-72
2022/08/17 00:26:23;;;;;;;0.40;0.40;;;;;;;;;;7388353;19;20209;-73
2022/08/17 00:28:48;;;;;;;0.30;0.30;;;;;;;;;;7379103;19;20594;-73
2022/08/17 00:31:14;;;;;;;0.60;0.60;;;;;;;;;;7374092;19;20121;-73
2022/08/17 00:33:41;;;;;;;0.30;0.30;;;;;;;;;;7384341;19;20149;-73
2022/08/17 00:36:06;;;;;;;0.30;0.30;;;;;;;;;;7377140;19;20113;-73
2022/08/17 00:38:33;;;;;;;0.30;0.30;;;;;;;;;;7376945;19;20137;-73
2022/08/17 00:41:02;;;;;;;0.30;0.30;;;;;;;;;;7375780;19;20139;-73
2022/08/17 00:43:45;;;;;;;0.20;0.20;;;;;;;;;;7382131;19;20512;-72
2022/08/17 00:46:19;;;;;;;0.30;0.30;;;;;;;;;;7375214;19;20129;-73
2022/08/17 00:48:45;;;;;;;0.30;0.30;;;;;;;;;;7371980;19;20148;-72
2022/08/17 00:51:34;;;;;;;0.30;0.30;;;;;;;;;;7380827;19;20125;-73
2022/08/17 00:54:06;;;;;;;0.50;0.50;;;;;;;;;;7379867;19;20137;-72
2022/08/17 00:56:35;;;;;;;0.30;0.30;;;;;;;;;;7381395;19;20128;-72
2022/08/17 00:59:04;;;;;;;0.85;0.65;;;;;;;;;;7385384;19;20121;-73
2022/08/17 01:01:31;;;;;;;0.30;0.30;;;;;;;;;;7378934;19;20948;-72
2022/08/17 01:03:56;;;;;;;0.40;0.40;;;;;;;;;;7380676;19;20157;-72
2022/08/17 01:06:23;;;;;;;0.30;0.30;;;;;;;;;;7382062;19;20129;-72
2022/08/17 01:08:51;;;;;;;0.73;0.73;;;;;;;;;;7372789;19;20135;-72
2022/08/17 01:11:17;;;;;;;0.30;0.30;;;;;;;;;;7383599;19;20150;-73
2022/08/17 01:13:42;;;;;;;0.30;0.30;;;;;;;;;;7372662;19;20551;-72
2022/08/17 01:16:29;;;;;;;0.30;0.30;;;;;;;;;;7379403;19;20141;-72
2022/08/17 01:19:05;;;;;;;0.30;0.30;;;;;;;;;;7373187;19;20148;-72
2022/08/17 01:21:36;;;;;;;0.40;0.40;;;;;;;;;;7374090;19;20670;-72
2022/08/17 01:24:02;;;;;;;0.30;0.30;;;;;;;;;;7374562;19;20124;-73
2022/08/17 01:26:29;;;;;;;1.02;0.80;;;;;;;;;;7375989;19;20137;-72
2022/08/17 01:28:54;;;;;;;1.60;1.50;;;;;;;;;;7382136;19;20145;-73
2022/08/17 01:31:21;;;;;;;0.30;0.30;;;;;;;;;;7382002;19;20113;-72
2022/08/17 01:33:46;;;;;;;0.30;0.30;;;;;;;;;;7377052;19;20552;-73
2022/08/17 01:36:12;;;;;;;0.50;0.50;;;;;;;;;;7389858;19;20129;-72
2022/08/17 01:38:37;;;;;;;0.30;0.30;;;;;;;;;;7385981;19;20109;-72
2022/08/17 01:41:08;;;;;;;0.57;0.57;;;;;;;;;;7385888;19;20523;-72
2022/08/17 01:43:43;;;;;;;0.30;0.30;;;;;;;;;;7384792;19;20157;-72
2022/08/17 01:46:08;;;;;;;0.32;0.32;;;;;;;;;;7388862;19;20154;-73
2022/08/17 01:48:36;;;;;;;0.88;0.88;;;;;;;;;;7388679;19;20132;-72
2022/08/17 01:51:01;;;;;;;0.30;0.30;;;;;;;;;;7383056;19;20517;-72
2022/08/17 01:53:38;;;;;;;0.30;0.30;;;;;;;;;;7382588;19;20164;-73
2022/08/17 01:56:18;;;;;;;0.30;0.30;;;;;;;;;;7386406;19;20461;-73
2022/08/17 01:58:43;;;;;;;0.30;0.30;;;;;;;;;;7390460;19;20196;-73
2022/08/17 02:01:09;;;;;;;0.40;0.40;;;;;;;;;;7388950;19;20113;-72
2022/08/17 02:03:36;;;;;;;0.30;0.30;;;;;;;;;;7386359;19;20155;-72
2022/08/17 02:06:02;;;;;;;0.30;0.30;;;;;;;;;;7388004;19;20160;-71
2022/08/17 02:08:31;;;;;;;0.20;0.20;;;;;;;;;;7380497;19;20117;-72
2022/08/17 02:10:56;;;;;;;0.30;0.30;;;;;;;;;;7383664;19;20128;-73
2022/08/17 02:13:22;;;;;;;0.30;0.30;;;;;;;;;;7380659;19;20160;-73
2022/08/17 02:15:47;;;;;;;0.30;0.30;;;;;;;;;;7382944;19;20181;-73
2022/08/17 02:18:13;;;;;;;0.30;0.30;;;;;;;;;;7385165;19;20140;-73
2022/08/17 02:20:39;;;;;;;0.40;0.40;;;;;;;;;;7388138;19;20121;-73
2022/08/17 02:23:07;;;;;;;0.30;0.30;;;;;;;;;;7385051;19;20149;-73
2022/08/17 02:25:34;;;;;;;0.32;0.32;;;;;;;;;;7380725;19;20165;-73
2022/08/17 02:28:00;;;;;;;0.30;0.30;;;;;;;;;;7374539;19;20128;-73
2022/08/17 02:30:25;;;;;;;0.30;0.30;;;;;;;;;;7378771;19;20196;-73
2022/08/17 02:32:51;;;;;;;0.30;0.30;;;;;;;;;;7377787;19;21045;-73
2022/08/17 02:35:17;;;;;;;0.43;0.43;;;;;;;;;;7375088;19;20184;-72
2022/08/17 02:37:42;;;;;;;0.30;0.30;;;;;;;;;;7374729;19;20184;-72
2022/08/17 02:40:08;;;;;;;0.30;0.30;;;;;;;;;;7382172;19;20141;-73
2022/08/17 02:42:37;;;;;;;0.30;0.30;;;;;;;;;;7375417;19;20185;-73
2022/08/17 02:45:05;;;;;;;0.30;0.30;;;;;;;;;;7385396;19;20579;-73
2022/08/17 02:47:30;;;;;;;0.40;0.40;;;;;;;;;;7375187;19;20152;-73
2022/08/17 02:49:55;;;;;;;1.30;1.10;;;;;;;;;;7387486;19;20137;-73
2022/08/17 02:52:21;;;;;;;0.30;0.30;;;;;;;;;;7384887;19;20141;-72
2022/08/17 02:54:46;;;;;;;0.65;0.65;;;;;;;;;;7376544;19;20188;-72
2022/08/17 02:57:12;;;;;;;0.30;0.30;;;;;;;;;;7379094;19;20181;-73
2022/08/17 02:59:38;;;;;;;1.30;1.25;;;;;;;;;;7375472;19;20128;-73
2022/08/17 03:02:05;;;;;;;1.13;1.02;;;;;;;;;;7378330;19;20174;-73
2022/08/17 03:04:31;;;;;;;0.30;0.30;;;;;;;;;;7366632;19;20140;-72
2022/08/17 03:06:56;;;;;;;0.60;0.60;;;;;;;;;;7369770;19;20142;-73
2022/08/17 03:09:21;;;;;;;0.50;0.50;;;;;;;;;;7373843;19;20125;-72
2022/08/17 03:11:49;;;;;;;0.82;0.82;;;;;;;;;;7373766;19;20152;-72
2022/08/17 03:14:15;;;;;;;0.30;0.30;;;;;;;;;;7377864;19;20128;-72
2022/08/17 03:16:40;;;;;;;0.30;0.30;;;;;;;;;;7382694;19;20238;-73
2022/08/17 03:19:05;;;;;;;1.10;0.57;;;;;;;;;;7375913;19;20124;-73
2022/08/17 03:21:31;;;;;;;0.30;0.30;;;;;;;;;;7379631;19;20942;-72
2022/08/17 03:23:56;;;;;;;0.30;0.30;;;;;;;;;;7386382;19;20225;-73
2022/08/17 03:26:21;;;;;;;0.50;0.50;;;;;;;;;;7382962;19;20113;-72
2022/08/17 03:28:47;;;;;;;0.50;0.50;;;;;;;;;;7385665;19;20128;-73
2022/08/17 03:31:12;;;;;;;0.30;0.30;;;;;;;;;;7379336;19;20133;-73
2022/08/17 03:33:37;;;;;;;0.50;0.50;;;;;;;;;;7372056;19;20678;-72
2022/08/17 03:36:03;;;;;;;0.50;0.50;;;;;;;;;;7374565;19;20245;-73
2022/08/17 03:38:28;;;;;;;0.30;0.30;;;;;;;;;;7374280;19;20133;-73
2022/08/17 03:40:54;;;;;;;0.50;0.50;;;;;;;;;;7374967;19;20762;-73
2022/08/17 03:43:21;;;;;;;0.35;0.35;;;;;;;;;;7370992;19;20159;-73
2022/08/17 03:57:10;;;;;;;0.30;0.30;;;;;;;;;;7373160;19;20150;-73
2022/08/17 03:59:36;;;;;;;0.40;0.40;;;;;;;;;;7375596;19;20225;-73
2022/08/17 04:02:07;;;;;;;0.30;0.30;;;;;;;;;;7372539;19;20172;-73
2022/08/17 04:04:33;;;;;;;0.40;0.40;;;;;;;;;;7374045;19;20199;-73
2022/08/17 04:06:59;;;;;;;0.30;0.30;;;;;;;;;;7377533;19;20145;-72
2022/08/17 04:09:24;;;;;;;0.30;0.30;;;;;;;;;;7381114;19;20140;-73
2022/08/17 04:11:49;;;;;;;0.30;0.30;;;;;;;;;;7381020;19;20117;-73
2022/08/17 04:14:15;;;;;;;0.45;0.45;;;;;;;;;;7384521;19;20709;-73
2022/08/17 04:16:40;;;;;;;0.30;0.30;;;;;;;;;;7385961;19;20148;-72
2022/08/17 04:19:05;;;;;;;0.30;0.30;;;;;;;;;;7383451;19;20149;-73
2022/08/17 04:21:31;;;;;;;0.40;0.40;;;;;;;;;;7391910;19;20144;-73
2022/08/17 04:23:57;;;;;;;0.30;0.30;;;;;;;;;;7387391;19;20196;-72
2022/08/17 04:26:22;;;;;;;0.30;0.30;;;;;;;;;;7392158;19;20125;-73
2022/08/17 04:28:47;;;;;;;0.47;0.47;;;;;;;;;;7385280;19;20148;-72
2022/08/17 04:31:14;;;;;;;0.50;0.50;;;;;;;;;;7384342;19;20627;-72
2022/08/17 04:33:42;;;;;;;0.30;0.30;;;;;;;;;;7377846;19;20159;-72
2022/08/17 04:36:10;;;;;;;0.30;0.30;;;;;;;;;;7382763;19;20602;-72
2022/08/17 04:38:37;;;;;;;0.30;0.30;;;;;;;;;;7387152;19;20151;-72
2022/08/17 04:43:48;;;;;;;0.30;0.30;;;;;;;;;;7389959;19;20664;-72
2022/08/17 16:44:32;;;;;;;0.52;0.52;;;;;;;;;;7400064;19;20195;-89
2022/08/17 16:50:49;;;;;;;0.52;0.52;;;;;;;;;;7399045;19;20481;-89
2022/08/17 16:53:17;;;;;;;0.40;0.40;;;;;;;;;;7399423;19;20164;-89
2022/08/17 16:55:46;;;;;;;0.60;0.60;;;;;;;;;;7396615;19;20644;-88
2022/08/17 16:58:13;;;;;;;2.75;0.73;;;;;;;;;;7402106;19;20242;-88
2022/08/17 17:00:42;;;;;;;0.50;0.50;;;;;;;;;;7400107;19;20168;-89
2022/08/17 17:03:17;;;;;;;0.50;0.50;;;;;;;;;;7399629;19;20121;-91
2022/08/17 17:06:02;;;;;;;0.40;0.40;;;;;;;;;;7392638;19;20151;-91
2022/08/17 17:08:30;;;;;;;1.10;1.10;;;;;;;;;;7396058;19;20605;-91
2022/08/17 17:10:56;;;;;;;0.40;0.40;;;;;;;;;;7395495;19;20169;-91
2022/08/17 17:13:38;;;;;;;0.47;0.47;;;;;;;;;;7401256;19;20141;-89
2022/08/17 17:16:25;;;;;;;0.50;0.50;;;;;;;;;;7399339;19;20157;-88
2022/08/17 17:19:03;;;;;;;0.73;0.73;;;;;;;;;;7404555;19;20284;-89
2022/08/17 17:21:37;;;;;;;0.68;0.68;;;;;;;;;;7405402;19;20160;-90
2022/08/17 17:24:06;;;;;;;0.50;0.50;;;;;;;;;;7403143;19;20128;-89
2022/08/17 17:26:50;;;;;;;1.10;1.05;;;;;;;;;;7399532;19;20144;-89
2022/08/17 17:29:22;;;;;;;0.45;0.45;;;;;;;;;;7400196;19;20201;-91
2022/08/17 17:31:55;;;;;;;0.30;0.30;;;;;;;;;;7398161;19;20148;-91
2022/08/17 17:34:21;;;;;;;0.52;0.52;;;;;;;;;;7396473;19;20507;-89
2022/08/17 17:36:53;;;;;;;0.77;0.65;;;;;;;;;;7405114;19;20145;-89
2022/08/17 17:39:47;;;;;;;0.50;0.50;;;;;;;;;;7403040;19;20180;-89
2022/08/17 17:42:20;;;;;;;1.15;0.73;;;;;;;;;;7401363;19;20153;-91
2022/08/17 17:44:48;;;;;;;0.90;0.90;;;;;;;;;;7407559;19;20164;-89
2022/08/17 17:47:14;;;;;;;0.40;0.40;;;;;;;;;;7411720;19;20972;-88
2022/08/17 17:49:44;;;;;;;0.50;0.50;;;;;;;;;;7409077;19;20212;-89
2022/08/17 17:52:18;;;;;;;0.82;0.82;;;;;;;;;;7409286;19;20593;-89
2022/08/17 17:55:02;;;;;;;0.68;0.68;;;;;;;;;;7406294;19;20155;-89
2022/08/17 18:00:29;;;;;;;1.52;1.05;;;;;;;;;;7404512;19;20129;-89
2022/08/17 18:03:34;;;;;;;0.45;0.45;;;;;;;;;;7402886;19;20196;-89
2022/08/17 18:06:18;;;;;;;1.02;0.98;;;;;;;;;;7398038;19;20149;-89
2022/08/17 18:09:00;;;;;;;0.55;0.55;;;;;;;;;;7398826;19;20548;-89
2022/08/17 18:11:48;;;;;;;0.50;0.50;;;;;;;;;;7408844;19;20157;-89
2022/08/17 18:15:09;;;;;;;0.30;0.30;;;;;;;;;;7397782;19;20144;-89
2022/08/17 18:17:36;;;;;;;0.50;0.50;;;;;;;;;;7402174;19;20136;-89
2022/08/17 18:20:05;;;;;;;0.40;0.40;;;;;;;;;;7399892;19;20172;-90
2022/08/17 18:22:34;;;;;;;0.30;0.30;;;;;;;;;;7400850;19;20316;-90
2022/08/17 18:24:59;;;;;;;0.60;0.60;;;;;;;;;;7401457;19;20152;-90
2022/08/17 18:27:54;;;;;;;0.35;0.35;;;;;;;;;;7398170;19;20145;-89
2022/08/17 18:30:20;;;;;;;0.30;0.30;;;;;;;;;;7397127;19;20172;-89
2022/08/17 18:32:49;;;;;;;0.40;0.40;;;;;;;;;;7397978;19;20157;-89
2022/08/17 18:35:26;;;;;;;0.45;0.45;;;;;;;;;;7398468;19;20598;-89
2022/08/17 18:41:26;;;;;;;0.40;0.40;;;;;;;;;;7399858;19;20144;-89
2022/08/17 18:44:12;;;;;;;0.38;0.38;;;;;;;;;;7399353;19;20137;-89
2022/08/17 18:46:44;;;;;;;0.50;0.50;;;;;;;;;;7404809;19;20132;-89
2022/08/17 18:49:52;;;;;;;0.32;0.32;;;;;;;;;;7401766;19;20283;-89
2022/08/17 18:52:29;;;;;;;0.60;0.55;;;;;;;;;;7398368;19;20181;-89
2022/08/17 18:55:19;;;;;;;0.65;0.65;;;;;;;;;;7402613;19;20156;-89
2022/08/17 18:57:51;;;;;;;0.55;0.55;;;;;;;;;;7404472;19;20152;-89
2022/08/17 19:00:44;;;;;;;0.60;0.60;;;;;;;;;;7406646;19;20256;-89
2022/08/17 19:10:18;;;;;;;0.40;0.40;;;;;;;;;;7390177;19;20209;-71
2022/08/17 19:13:09;;;;;;;0.50;0.50;;;;;;;;;;7374508;19;20219;-71
2022/08/17 19:15:37;;;;;;;0.30;0.30;;;;;;;;;;7378399;19;20140;-71
2022/08/17 19:18:15;;;;;;;0.73;0.73;;;;;;;;;;7380366;19;20121;-71
2022/08/17 19:20:49;;;;;;;0.30;0.30;;;;;;;;;;7382815;19;20125;-71
2022/08/17 19:23:21;;;;;;;0.30;0.30;;;;;;;;;;7365649;19;20149;-72
2022/08/17 19:25:50;;;;;;;0.75;0.75;;;;;;;;;;7373438;19;20121;-71
2022/08/17 19:28:20;;;;;;;0.50;0.50;;;;;;;;;;7375471;19;20125;-71
2022/08/17 19:30:46;;;;;;;0.30;0.30;;;;;;;;;;7383393;19;20191;-73
2022/08/17 19:33:12;;;;;;;0.30;0.30;;;;;;;;;;7382939;19;20622;-72
2022/08/17 19:35:45;;;;;;;0.30;0.30;;;;;;;;;;7364894;19;20128;-72
2022/08/17 19:38:40;;;;;;;0.30;0.30;;;;;;;;;;7372221;19;20122;-72
2022/08/17 19:41:24;;;;;;;0.30;0.30;;;;;;;;;;7382184;19;20153;-72
2022/08/17 19:44:02;;;;;;;0.30;0.30;;;;;;;;;;7374238;19;20181;-71
2022/08/17 19:46:49;;;;;;;0.40;0.40;;;;;;;;;;7372742;19;20163;-72
2022/08/17 19:49:30;;;;;;;1.30;1.30;;;;;;;;;;7379752;19;20141;-71
2022/08/17 19:52:02;;;;;;;0.47;0.47;;;;;;;;;;7390545;19;20140;-71
2022/08/17 19:54:34;;;;;;;0.63;0.63;;;;;;;;;;7385604;19;20129;-71
2022/08/17 19:57:11;;;;;;;0.30;0.30;;;;;;;;;;7378624;19;20125;-71
2022/08/17 19:59:57;;;;;;;5.15;1.33;;;;;;;;;;7378405;19;20192;-71
2022/08/17 20:02:31;;;;;;;0.50;0.50;;;;;;;;;;7383583;19;20149;-71
2022/08/17 20:05:01;;;;;;;0.30;0.30;;;;;;;;;;7386404;19;20124;-71
2022/08/17 20:07:43;;;;;;;0.57;0.50;;;;;;;;;;7365204;19;20149;-71
2022/08/17 20:10:19;;;;;;;0.32;0.32;;;;;;;;;;7373911;19;20125;-72
2022/08/17 20:12:46;;;;;;;1.40;1.30;;;;;;;;;;7378642;19;20349;-73
2022/08/17 20:15:26;;;;;;;3.22;1.25;;;;;;;;;;7376793;19;20148;-73
2022/08/17 20:17:52;;;;;;;0.63;0.63;;;;;;;;;;7377247;19;20124;-75
2022/08/17 20:20:32;;;;;;;1.00;0.82;;;;;;;;;;7381020;19;20159;-73
2022/08/17 20:23:10;;;;;;;1.30;1.20;;;;;;;;;;7379344;19;20176;-74
2022/08/17 20:26:05;;;;;;;0.32;0.32;;;;;;;;;;7383437;19;20492;-72
2022/08/17 20:28:34;;;;;;;0.95;0.95;;;;;;;;;;7373290;19;20117;-71
2022/08/17 20:31:00;;;;;;;0.60;0.60;;;;;;;;;;7375922;19;20132;-71
2022/08/17 20:33:32;;;;;;;0.43;0.43;;;;;;;;;;7374955;19;20176;-72
2022/08/17 20:36:10;;;;;;;1.65;0.65;;;;;;;;;;7373812;19;20158;-72
2022/08/17 20:38:45;;;;;;;0.38;0.38;;;;;;;;;;7375177;19;20513;-73
2022/08/17 20:41:12;;;;;;;0.20;0.20;;;;;;;;;;7371649;19;20125;-72
2022/08/17 20:43:37;;;;;;;0.90;0.88;;;;;;;;;;7365370;19;20157;-72
2022/08/17 20:46:14;;;;;;;0.30;0.30;;;;;;;;;;7380444;19;20140;-72
2022/08/17 20:48:42;;;;;;;0.30;0.30;;;;;;;;;;7376494;19;20476;-72
2022/08/17 20:51:18;;;;;;;0.30;0.30;;;;;;;;;;7381095;19;20207;-72
2022/08/17 20:53:46;;;;;;;0.30;0.30;;;;;;;;;;7371781;19;20602;-72
2022/08/17 20:56:43;;;;;;;0.30;0.30;;;;;;;;;;7381401;19;20519;-72
2022/08/17 20:59:22;;;;;;;0.30;0.30;;;;;;;;;;7384673;19;20143;-72
2022/08/17 21:02:06;;;;;;;1.10;1.10;;;;;;;;;;7377032;19;20128;-73
2022/08/17 21:05:00;;;;;;;0.40;0.40;;;;;;;;;;7387456;19;20128;-72
2022/08/17 21:07:32;;;;;;;0.30;0.30;;;;;;;;;;7382482;19;20435;-72
2022/08/17 21:10:27;;;;;;;0.50;0.50;;;;;;;;;;7389844;19;20129;-73
2022/08/17 21:13:03;;;;;;;0.40;0.40;;;;;;;;;;7368518;19;20180;-73
2022/08/17 21:15:29;;;;;;;0.30;0.30;;;;;;;;;;7368695;19;20610;-72
2022/08/17 21:18:05;;;;;;;0.30;0.30;;;;;;;;;;7368746;19;20140;-71
2022/08/17 21:20:54;;;;;;;0.30;0.30;;;;;;;;;;7369241;19;20546;-72
2022/08/17 21:23:28;;;;;;;0.30;0.30;;;;;;;;;;7366313;19;20518;-71
2022/08/17 21:26:01;;;;;;;0.38;0.38;;;;;;;;;;7368345;19;20120;-71
2022/08/17 21:28:35;;;;;;;0.30;0.30;;;;;;;;;;7371535;19;20622;-72
2022/08/17 21:31:07;;;;;;;0.30;0.30;;;;;;;;;;7358131;19;20124;-71
2022/08/17 21:33:34;;;;;;;0.30;0.30;;;;;;;;;;7364556;19;20149;-72
2022/08/17 21:35:59;;;;;;;2.30;0.75;;;;;;;;;;7363911;19;20149;-71
2022/08/17 21:38:51;;;;;;;0.30;0.30;;;;;;;;;;7369769;19;20148;-71
2022/08/17 21:41:19;;;;;;;0.30;0.30;;;;;;;;;;7384719;19;20134;-71
2022/08/17 21:43:48;;;;;;;0.30;0.30;;;;;;;;;;7375094;19;20619;-70
2022/08/17 21:46:28;;;;;;;0.30;0.30;;;;;;;;;;7380129;19;20193;-70
2022/08/17 21:48:57;;;;;;;0.30;0.30;;;;;;;;;;7385150;19;20128;-72
2022/08/17 21:51:26;;;;;;;0.30;0.30;;;;;;;;;;7382105;19;20140;-72
2022/08/17 21:54:03;;;;;;;0.30;0.30;;;;;;;;;;7379889;19;20173;-71
2022/08/17 21:56:35;;;;;;;0.45;0.45;;;;;;;;;;7381333;19;20356;-69
2022/08/17 21:59:04;;;;;;;0.30;0.30;;;;;;;;;;7382219;19;20433;-71
2022/08/17 22:01:34;;;;;;;0.30;0.30;;;;;;;;;;7382572;19;20163;-71
2022/08/17 22:04:07;;;;;;;0.30;0.30;;;;;;;;;;7381181;19;20128;-73
2022/08/17 22:06:44;;;;;;;0.30;0.30;;;;;;;;;;7376318;19;20129;-71
2022/08/17 22:09:13;;;;;;;0.30;0.30;;;;;;;;;;7381570;19;20624;-72
2022/08/17 22:11:54;;;;;;;0.30;0.30;;;;;;;;;;7379831;19;20164;-71
2022/08/17 22:14:39;;;;;;;0.20;0.20;;;;;;;;;;7385173;19;20125;-72
2022/08/17 22:17:06;;;;;;;0.30;0.30;;;;;;;;;;7384877;19;20196;-72
2022/08/17 22:19:34;;;;;;;0.32;0.32;;;;;;;;;;7381252;19;20602;-72
2022/08/17 22:22:09;;;;;;;0.30;0.30;;;;;;;;;;7387218;19;20618;-72
2022/08/17 22:24:35;;;;;;;0.50;0.50;;;;;;;;;;7373408;19;20454;-72
2022/08/17 22:27:09;;;;;;;0.30;0.30;;;;;;;;;;7382749;19;20145;-72
2022/08/17 22:29:45;;;;;;;0.30;0.30;;;;;;;;;;7383425;19;20981;-72
2022/08/17 22:32:10;;;;;;;0.30;0.30;;;;;;;;;;7381292;19;20177;-72
2022/08/17 22:34:37;;;;;;;0.30;0.30;;;;;;;;;;7381818;19;20125;-72
2022/08/17 22:37:20;;;;;;;0.52;0.52;;;;;;;;;;7380697;19;20140;-72
2022/08/17 22:39:58;;;;;;;0.55;0.55;;;;;;;;;;7384054;19;20196;-73
2022/08/17 22:42:23;;;;;;;0.30;0.30;;;;;;;;;;7377521;19;20510;-72
2022/08/17 22:44:50;;;;;;;0.30;0.30;;;;;;;;;;7382983;19;20160;-73
2022/08/17 22:47:15;;;;;;;0.30;0.30;;;;;;;;;;7382002;19;20144;-72
2022/08/17 22:49:49;;;;;;;0.40;0.40;;;;;;;;;;7386121;19;20117;-72
2022/08/17 22:52:14;;;;;;;0.35;0.35;;;;;;;;;;7384674;19;20156;-72
2022/08/17 23:00:28;;;;;;;0.30;0.30;;;;;;;;;;7383040;19;20133;-72
2022/08/17 23:03:23;;;;;;;0.95;0.95;;;;;;;;;;7380402;19;20172;-72
2022/08/17 23:06:06;;;;;;;0.30;0.30;;;;;;;;;;7383739;19;20141;-72
2022/08/17 23:08:35;;;;;;;0.38;0.38;;;;;;;;;;7381510;19;20180;-72
2022/08/17 23:11:01;;;;;;;0.30;0.30;;;;;;;;;;7383608;19;20529;-72
2022/08/17 23:13:26;;;;;;;0.30;0.30;;;;;;;;;;7380965;19;20579;-72
2022/08/17 23:15:52;;;;;;;0.30;0.30;;;;;;;;;;7383146;19;20148;-72
2022/08/17 23:18:17;;;;;;;0.30;0.30;;;;;;;;;;7381944;19;20179;-71
2022/08/17 23:20:43;;;;;;;0.30;0.30;;;;;;;;;;7383732;19;20140;-72
2022/08/17 23:23:10;;;;;;;0.30;0.30;;;;;;;;;;7386738;19;20141;-72
2022/08/17 23:25:36;;;;;;;0.30;0.30;;;;;;;;;;7387690;19;20133;-72
2022/08/17 23:28:03;;;;;;;0.30;0.30;;;;;;;;;;7390147;19;20579;-71
2022/08/17 23:30:30;;;;;;;0.30;0.30;;;;;;;;;;7391993;19;20125;-72
2022/08/17 23:33:03;;;;;;;0.30;0.30;;;;;;;;;;7388684;19;20160;-72
2022/08/17 23:35:30;;;;;;;0.35;0.35;;;;;;;;;;7382789;19;20145;-72
2022/08/17 23:37:55;;;;;;;0.30;0.30;;;;;;;;;;7393234;19;20602;-74
2022/08/17 23:40:22;;;;;;;0.30;0.30;;;;;;;;;;7386853;19;20208;-74
2022/08/17 23:42:51;;;;;;;0.40;0.40;;;;;;;;;;7388187;19;20238;-70
2022/08/17 23:45:17;;;;;;;0.30;0.30;;;;;;;;;;7387460;19;20129;-73
2022/08/17 23:47:43;;;;;;;0.70;0.70;;;;;;;;;;7386625;19;20958;-72
2022/08/17 23:50:08;;;;;;;0.40;0.40;;;;;;;;;;7391416;19;20129;-72
2022/08/17 23:52:37;;;;;;;0.30;0.30;;;;;;;;;;7392674;19;20200;-75
2022/08/17 23:55:04;;;;;;;0.32;0.32;;;;;;;;;;7387947;19;20161;-73
2022/08/17 23:57:29;;;;;;;0.90;0.90;;;;;;;;;;7391486;19;20169;-72
2022/08/17 23:59:54;;;;;;;0.40;0.40;;;;;;;;;;7391466;19;20140;-72
